sensor_id;sensor_type;location;lat;lon;timestamp;pressure;altitude;pressure_sealevel;temperature;humidity
65013;BME280;51715;39.432;-77.518;2023-05-29T00:00:07;99529.50;;;27.54;23.11
65013;BME280;51715;39.432;-77.518;2023-05-29T00:02:37;99526.48;;;27.48;21.90
65013;BME280;51715;39.432;-77.518;2023-05-29T00:05:07;99527.79;;;27.41;22.26
65013;BME280;51715;39.432;-77.518;2023-05-29T00:07:36;99529.23;;;27.30;22.46
65013;BME280;51715;39.432;-77.518;2023-05-29T00:10:08;99529.05;;;27.18;22.63
65013;BME280;51715;39.432;-77.518;2023-05-29T00:12:37;99530.81;;;27.35;23.03
65013;BME280;51715;39.432;-77.518;2023-05-29T00:15:08;99530.86;;;26.86;24.16
65013;BME280;51715;39.432;-77.518;2023-05-29T00:17:36;99530.41;;;27.09;23.62
65013;BME280;51715;39.432;-77.518;2023-05-29T00:20:07;99530.91;;;26.96;23.88
65013;BME280;51715;39.432;-77.518;2023-05-29T00:22:35;99534.28;;;27.08;24.17
65013;BME280;51715;39.432;-77.518;2023-05-29T00:25:05;99535.38;;;26.91;24.67
65013;BME280;51715;39.432;-77.518;2023-05-29T00:27:35;99538.78;;;26.68;24.59
65013;BME280;51715;39.432;-77.518;2023-05-29T00:30:07;99539.32;;;26.88;24.93
65013;BME280;51715;39.432;-77.518;2023-05-29T00:32:36;99544.47;;;26.73;25.19
65013;BME280;51715;39.432;-77.518;2023-05-29T00:35:06;99546.73;;;26.64;25.38
65013;BME280;51715;39.432;-77.518;2023-05-29T00:37:34;99545.34;;;26.48;26.50
65013;BME280;51715;39.432;-77.518;2023-05-29T00:40:03;99546.00;;;26.35;27.18
65013;BME280;51715;39.432;-77.518;2023-05-29T00:42:31;99544.30;;;26.73;26.40
65013;BME280;51715;39.432;-77.518;2023-05-29T00:45:00;99543.81;;;26.40;26.46
65013;BME280;51715;39.432;-77.518;2023-05-29T00:47:29;99544.67;;;26.29;26.58
65013;BME280;51715;39.432;-77.518;2023-05-29T00:49:57;99548.93;;;26.41;26.74
65013;BME280;51715;39.432;-77.518;2023-05-29T00:52:27;99552.84;;;25.84;27.82
65013;BME280;51715;39.432;-77.518;2023-05-29T00:54:56;99559.29;;;26.01;27.54
65013;BME280;51715;39.432;-77.518;2023-05-29T00:57:25;99563.03;;;25.59;28.49
65013;BME280;51715;39.432;-77.518;2023-05-29T00:59:53;99562.12;;;25.94;28.18
65013;BME280;51715;39.432;-77.518;2023-05-29T01:02:23;99562.84;;;25.83;28.82
65013;BME280;51715;39.432;-77.518;2023-05-29T01:04:51;99560.43;;;25.76;28.64
65013;BME280;51715;39.432;-77.518;2023-05-29T01:07:18;99563.24;;;25.67;28.82
65013;BME280;51715;39.432;-77.518;2023-05-29T01:09:47;99566.38;;;25.60;29.05
65013;BME280;51715;39.432;-77.518;2023-05-29T01:12:26;99566.15;;;25.53;29.16
65013;BME280;51715;39.432;-77.518;2023-05-29T01:15:09;99567.98;;;25.30;29.58
65013;BME280;51715;39.432;-77.518;2023-05-29T01:17:51;99567.24;;;25.50;29.66
65013;BME280;51715;39.432;-77.518;2023-05-29T01:20:30;99567.28;;;25.60;29.56
65013;BME280;51715;39.432;-77.518;2023-05-29T01:23:12;99569.29;;;25.44;29.65
65013;BME280;51715;39.432;-77.518;2023-05-29T01:25:56;99568.61;;;25.66;29.52
65013;BME280;51715;39.432;-77.518;2023-05-29T01:28:29;99571.89;;;25.63;29.61
65013;BME280;51715;39.432;-77.518;2023-05-29T01:31:01;99573.35;;;25.65;29.77
65013;BME280;51715;39.432;-77.518;2023-05-29T01:33:32;99574.89;;;25.68;29.76
65013;BME280;51715;39.432;-77.518;2023-05-29T01:36:00;99577.61;;;25.69;29.90
65013;BME280;51715;39.432;-77.518;2023-05-29T01:38:28;99579.46;;;25.70;30.13
65013;BME280;51715;39.432;-77.518;2023-05-29T01:40:56;99584.15;;;25.72;29.99
65013;BME280;51715;39.432;-77.518;2023-05-29T01:43:25;99585.71;;;25.73;29.92
65013;BME280;51715;39.432;-77.518;2023-05-29T01:45:53;99588.87;;;25.57;29.89
65013;BME280;51715;39.432;-77.518;2023-05-29T01:48:22;99585.25;;;25.74;30.27
65013;BME280;51715;39.432;-77.518;2023-05-29T01:50:51;99585.51;;;25.47;30.54
65013;BME280;51715;39.432;-77.518;2023-05-29T01:53:20;99583.67;;;25.24;30.40
65013;BME280;51715;39.432;-77.518;2023-05-29T01:55:48;99581.10;;;25.51;30.20
65013;BME280;51715;39.432;-77.518;2023-05-29T01:58:17;99584.08;;;25.26;30.07
65013;BME280;51715;39.432;-77.518;2023-05-29T02:00:45;99587.58;;;25.78;30.02
65013;BME280;51715;39.432;-77.518;2023-05-29T02:03:13;99588.85;;;25.78;30.31
65013;BME280;51715;39.432;-77.518;2023-05-29T02:05:41;99593.57;;;25.80;30.16
65013;BME280;51715;39.432;-77.518;2023-05-29T02:08:10;99595.23;;;25.77;30.41
65013;BME280;51715;39.432;-77.518;2023-05-29T02:10:39;99600.10;;;25.56;30.35
65013;BME280;51715;39.432;-77.518;2023-05-29T02:13:07;99604.27;;;25.79;30.47
65013;BME280;51715;39.432;-77.518;2023-05-29T02:15:35;99604.61;;;25.60;30.13
65013;BME280;51715;39.432;-77.518;2023-05-29T02:18:03;99605.04;;;25.63;30.55
65013;BME280;51715;39.432;-77.518;2023-05-29T02:20:32;99604.25;;;25.84;30.75
65013;BME280;51715;39.432;-77.518;2023-05-29T02:23:00;99603.92;;;25.83;30.70
65013;BME280;51715;39.432;-77.518;2023-05-29T02:25:29;99604.60;;;25.51;30.94
65013;BME280;51715;39.432;-77.518;2023-05-29T02:27:57;99602.63;;;25.22;30.85
65013;BME280;51715;39.432;-77.518;2023-05-29T02:30:25;99606.25;;;25.68;31.21
65013;BME280;51715;39.432;-77.518;2023-05-29T02:32:54;99605.77;;;25.70;30.62
65013;BME280;51715;39.432;-77.518;2023-05-29T02:35:22;99605.57;;;25.47;30.75
65013;BME280;51715;39.432;-77.518;2023-05-29T02:37:51;99607.21;;;25.44;30.98
65013;BME280;51715;39.432;-77.518;2023-05-29T02:40:20;99606.24;;;25.62;30.86
65013;BME280;51715;39.432;-77.518;2023-05-29T02:42:49;99607.07;;;25.62;31.14
65013;BME280;51715;39.432;-77.518;2023-05-29T02:45:17;99607.15;;;25.32;31.76
65013;BME280;51715;39.432;-77.518;2023-05-29T02:47:46;99606.19;;;25.22;31.52
65013;BME280;51715;39.432;-77.518;2023-05-29T02:50:14;99603.06;;;25.34;31.55
65013;BME280;51715;39.432;-77.518;2023-05-29T02:52:42;99598.67;;;25.26;32.79
65013;BME280;51715;39.432;-77.518;2023-05-29T02:55:10;99594.82;;;25.25;33.00
65013;BME280;51715;39.432;-77.518;2023-05-29T02:57:38;99593.17;;;25.23;32.28
65013;BME280;51715;39.432;-77.518;2023-05-29T03:00:08;99592.16;;;25.25;32.28
65013;BME280;51715;39.432;-77.518;2023-05-29T03:02:37;99594.20;;;25.03;32.29
65013;BME280;51715;39.432;-77.518;2023-05-29T03:05:07;99591.99;;;25.49;32.05
65013;BME280;51715;39.432;-77.518;2023-05-29T03:07:36;99591.86;;;25.22;32.20
65013;BME280;51715;39.432;-77.518;2023-05-29T03:10:04;99592.29;;;25.20;32.27
65013;BME280;51715;39.432;-77.518;2023-05-29T03:12:32;99590.62;;;25.21;31.96
65013;BME280;51715;39.432;-77.518;2023-05-29T03:15:00;99592.47;;;25.23;31.90
65013;BME280;51715;39.432;-77.518;2023-05-29T03:17:29;99593.23;;;25.23;32.46
65013;BME280;51715;39.432;-77.518;2023-05-29T03:19:56;99591.11;;;25.14;32.90
65013;BME280;51715;39.432;-77.518;2023-05-29T03:22:25;99586.94;;;25.12;32.48
65013;BME280;51715;39.432;-77.518;2023-05-29T03:24:53;99584.68;;;25.11;32.97
65013;BME280;51715;39.432;-77.518;2023-05-29T03:27:21;99586.48;;;25.32;33.11
65013;BME280;51715;39.432;-77.518;2023-05-29T03:29:49;99582.36;;;25.31;33.12
65013;BME280;51715;39.432;-77.518;2023-05-29T03:32:17;99582.26;;;24.96;33.28
65013;BME280;51715;39.432;-77.518;2023-05-29T03:34:45;99581.36;;;24.92;33.02
65013;BME280;51715;39.432;-77.518;2023-05-29T03:37:14;99577.55;;;24.88;33.19
65013;BME280;51715;39.432;-77.518;2023-05-29T03:39:42;99571.49;;;24.83;33.53
65013;BME280;51715;39.432;-77.518;2023-05-29T03:42:10;99567.11;;;25.06;33.84
65013;BME280;51715;39.432;-77.518;2023-05-29T03:44:38;99562.88;;;24.83;33.60
65013;BME280;51715;39.432;-77.518;2023-05-29T03:47:06;99557.20;;;25.13;33.29
65013;BME280;51715;39.432;-77.518;2023-05-29T03:49:34;99554.03;;;25.23;33.07
65013;BME280;51715;39.432;-77.518;2023-05-29T03:52:03;99551.97;;;24.99;33.80
65013;BME280;51715;39.432;-77.518;2023-05-29T03:54:32;99546.74;;;25.24;33.18
65013;BME280;51715;39.432;-77.518;2023-05-29T03:57:00;99544.32;;;25.00;33.23
65013;BME280;51715;39.432;-77.518;2023-05-29T03:59:28;99540.12;;;25.03;33.43
65013;BME280;51715;39.432;-77.518;2023-05-29T04:04:00;99531.81;;;25.20;32.41
65013;BME280;51715;39.432;-77.518;2023-05-29T04:06:29;99531.06;;;25.13;32.85
65013;BME280;51715;39.432;-77.518;2023-05-29T04:08:57;99529.06;;;25.06;33.14
65013;BME280;51715;39.432;-77.518;2023-05-29T04:11:25;99529.96;;;25.38;33.36
65013;BME280;51715;39.432;-77.518;2023-05-29T04:13:53;99531.50;;;25.15;34.33
65013;BME280;51715;39.432;-77.518;2023-05-29T04:16:21;99530.31;;;24.81;33.85
65013;BME280;51715;39.432;-77.518;2023-05-29T04:18:49;99529.87;;;24.39;34.43
65013;BME280;51715;39.432;-77.518;2023-05-29T04:21:17;99529.10;;;24.57;34.35
65013;BME280;51715;39.432;-77.518;2023-05-29T04:23:45;99524.18;;;24.75;33.96
65013;BME280;51715;39.432;-77.518;2023-05-29T04:26:14;99519.68;;;24.69;34.13
65013;BME280;51715;39.432;-77.518;2023-05-29T04:28:42;99515.23;;;24.80;34.48
65013;BME280;51715;39.432;-77.518;2023-05-29T04:31:10;99511.99;;;24.49;34.34
65013;BME280;51715;39.432;-77.518;2023-05-29T04:33:38;99513.50;;;24.30;34.85
65013;BME280;51715;39.432;-77.518;2023-05-29T04:36:07;99509.53;;;24.30;34.84
65013;BME280;51715;39.432;-77.518;2023-05-29T04:38:35;99507.01;;;24.10;35.30
65013;BME280;51715;39.432;-77.518;2023-05-29T04:41:03;99505.08;;;24.13;35.40
65013;BME280;51715;39.432;-77.518;2023-05-29T04:43:31;99497.67;;;23.93;34.95
65013;BME280;51715;39.432;-77.518;2023-05-29T04:45:58;99492.39;;;24.14;34.88
65013;BME280;51715;39.432;-77.518;2023-05-29T04:48:26;99488.94;;;24.13;35.49
65013;BME280;51715;39.432;-77.518;2023-05-29T04:50:54;99485.95;;;24.13;35.38
65013;BME280;51715;39.432;-77.518;2023-05-29T04:53:22;99483.71;;;24.03;35.43
65013;BME280;51715;39.432;-77.518;2023-05-29T04:55:50;99479.21;;;23.93;35.64
65013;BME280;51715;39.432;-77.518;2023-05-29T04:58:18;99479.35;;;23.84;35.79
65013;BME280;51715;39.432;-77.518;2023-05-29T05:00:46;99481.00;;;23.68;36.21
65013;BME280;51715;39.432;-77.518;2023-05-29T05:03:15;99478.14;;;23.81;36.15
65013;BME280;51715;39.432;-77.518;2023-05-29T05:05:43;99475.06;;;23.97;36.22
65013;BME280;51715;39.432;-77.518;2023-05-29T05:08:10;99474.21;;;23.42;36.40
65013;BME280;51715;39.432;-77.518;2023-05-29T05:10:39;99474.89;;;23.70;36.20
65013;BME280;51715;39.432;-77.518;2023-05-29T05:13:07;99476.31;;;23.75;36.08
65013;BME280;51715;39.432;-77.518;2023-05-29T05:15:35;99477.17;;;23.53;36.11
65013;BME280;51715;39.432;-77.518;2023-05-29T05:18:04;99473.52;;;23.41;36.26
65013;BME280;51715;39.432;-77.518;2023-05-29T05:20:32;99475.94;;;23.49;36.53
65013;BME280;51715;39.432;-77.518;2023-05-29T05:23:00;99473.90;;;23.66;36.53
65013;BME280;51715;39.432;-77.518;2023-05-29T05:25:29;99474.91;;;23.38;36.46
65013;BME280;51715;39.432;-77.518;2023-05-29T05:27:57;99472.92;;;23.18;36.27
65013;BME280;51715;39.432;-77.518;2023-05-29T05:30:25;99472.29;;;23.41;36.32
65013;BME280;51715;39.432;-77.518;2023-05-29T05:32:53;99469.69;;;23.39;36.48
65013;BME280;51715;39.432;-77.518;2023-05-29T05:35:22;99469.05;;;23.61;36.66
65013;BME280;51715;39.432;-77.518;2023-05-29T05:37:50;99468.75;;;23.44;37.36
65013;BME280;51715;39.432;-77.518;2023-05-29T05:40:19;99469.21;;;23.07;37.39
65013;BME280;51715;39.432;-77.518;2023-05-29T05:42:47;99468.93;;;22.89;37.65
65013;BME280;51715;39.432;-77.518;2023-05-29T05:45:15;99464.17;;;22.79;37.59
65013;BME280;51715;39.432;-77.518;2023-05-29T05:47:42;99460.41;;;22.77;37.75
65013;BME280;51715;39.432;-77.518;2023-05-29T05:50:10;99453.81;;;22.79;37.71
65013;BME280;51715;39.432;-77.518;2023-05-29T05:52:39;99450.74;;;22.96;37.82
65013;BME280;51715;39.432;-77.518;2023-05-29T05:55:08;99451.43;;;22.65;37.92
65013;BME280;51715;39.432;-77.518;2023-05-29T05:57:36;99449.23;;;22.55;38.04
65013;BME280;51715;39.432;-77.518;2023-05-29T06:00:04;99448.55;;;22.48;38.00
65013;BME280;51715;39.432;-77.518;2023-05-29T06:02:33;99444.84;;;22.44;38.07
65013;BME280;51715;39.432;-77.518;2023-05-29T06:05:00;99441.09;;;22.39;38.15
65013;BME280;51715;39.432;-77.518;2023-05-29T06:07:28;99436.59;;;22.52;38.08
65013;BME280;51715;39.432;-77.518;2023-05-29T06:09:56;99433.21;;;22.66;37.91
65013;BME280;51715;39.432;-77.518;2023-05-29T06:12:24;99427.19;;;22.40;38.23
65013;BME280;51715;39.432;-77.518;2023-05-29T06:14:53;99422.61;;;22.54;38.58
65013;BME280;51715;39.432;-77.518;2023-05-29T06:17:21;99418.72;;;22.47;38.65
65013;BME280;51715;39.432;-77.518;2023-05-29T06:19:49;99425.02;;;22.29;39.12
65013;BME280;51715;39.432;-77.518;2023-05-29T06:22:17;99426.53;;;21.88;39.32
65013;BME280;51715;39.432;-77.518;2023-05-29T06:24:45;99427.04;;;21.96;39.12
65013;BME280;51715;39.432;-77.518;2023-05-29T06:27:13;99420.97;;;22.03;39.00
65013;BME280;51715;39.432;-77.518;2023-05-29T06:29:41;99418.14;;;22.06;38.77
65013;BME280;51715;39.432;-77.518;2023-05-29T06:32:09;99416.19;;;21.99;38.91
65013;BME280;51715;39.432;-77.518;2023-05-29T06:34:37;99416.19;;;21.77;38.81
65013;BME280;51715;39.432;-77.518;2023-05-29T06:37:05;99413.14;;;21.87;39.05
65013;BME280;51715;39.432;-77.518;2023-05-29T06:39:33;99413.70;;;21.76;39.22
65013;BME280;51715;39.432;-77.518;2023-05-29T06:42:02;99410.40;;;21.72;39.45
65013;BME280;51715;39.432;-77.518;2023-05-29T06:44:30;99405.51;;;21.71;39.56
65013;BME280;51715;39.432;-77.518;2023-05-29T06:46:58;99406.07;;;21.68;39.59
65013;BME280;51715;39.432;-77.518;2023-05-29T06:49:27;99407.14;;;21.64;39.41
65013;BME280;51715;39.432;-77.518;2023-05-29T06:51:54;99405.91;;;21.91;39.39
65013;BME280;51715;39.432;-77.518;2023-05-29T06:54:22;99404.43;;;21.66;39.26
65013;BME280;51715;39.432;-77.518;2023-05-29T06:56:50;99406.23;;;21.76;39.29
65013;BME280;51715;39.432;-77.518;2023-05-29T06:59:19;99403.85;;;21.56;39.09
65013;BME280;51715;39.432;-77.518;2023-05-29T07:01:47;99400.38;;;21.57;38.99
65013;BME280;51715;39.432;-77.518;2023-05-29T07:04:16;99399.51;;;21.82;38.85
65013;BME280;51715;39.432;-77.518;2023-05-29T07:06:43;99397.15;;;21.54;38.76
65013;BME280;51715;39.432;-77.518;2023-05-29T07:09:11;99397.11;;;21.52;38.72
65013;BME280;51715;39.432;-77.518;2023-05-29T07:11:39;99391.88;;;21.46;38.75
65013;BME280;51715;39.432;-77.518;2023-05-29T07:14:06;99385.65;;;21.34;39.19
65013;BME280;51715;39.432;-77.518;2023-05-29T07:16:34;99384.68;;;21.35;39.64
65013;BME280;51715;39.432;-77.518;2023-05-29T07:19:02;99385.55;;;21.40;39.75
65013;BME280;51715;39.432;-77.518;2023-05-29T07:21:30;99389.18;;;20.81;40.06
65013;BME280;51715;39.432;-77.518;2023-05-29T07:23:58;99392.47;;;21.03;40.17
65013;BME280;51715;39.432;-77.518;2023-05-29T07:26:27;99395.96;;;21.04;40.08
65013;BME280;51715;39.432;-77.518;2023-05-29T07:28:55;99396.77;;;21.06;39.95
65013;BME280;51715;39.432;-77.518;2023-05-29T07:31:24;99395.72;;;21.13;39.90
65013;BME280;51715;39.432;-77.518;2023-05-29T07:33:53;99393.54;;;20.86;39.88
65013;BME280;51715;39.432;-77.518;2023-05-29T07:36:22;99389.50;;;21.15;39.89
65013;BME280;51715;39.432;-77.518;2023-05-29T07:38:49;99390.31;;;21.04;39.54
65013;BME280;51715;39.432;-77.518;2023-05-29T07:41:18;99388.76;;;21.35;39.53
65013;BME280;51715;39.432;-77.518;2023-05-29T07:43:47;99391.30;;;21.14;39.42
65013;BME280;51715;39.432;-77.518;2023-05-29T07:46:14;99391.39;;;21.10;39.47
65013;BME280;51715;39.432;-77.518;2023-05-29T07:48:43;99391.56;;;21.14;39.78
65013;BME280;51715;39.432;-77.518;2023-05-29T07:51:11;99391.97;;;20.82;39.78
65013;BME280;51715;39.432;-77.518;2023-05-29T07:53:39;99388.90;;;20.74;39.96
65013;BME280;51715;39.432;-77.518;2023-05-29T07:56:07;99384.50;;;20.95;39.86
65013;BME280;51715;39.432;-77.518;2023-05-29T07:58:35;99385.01;;;20.80;40.11
65013;BME280;51715;39.432;-77.518;2023-05-29T08:01:04;99387.87;;;20.76;40.28
65013;BME280;51715;39.432;-77.518;2023-05-29T08:03:32;99389.50;;;20.62;40.29
65013;BME280;51715;39.432;-77.518;2023-05-29T08:06:00;99390.86;;;20.55;40.36
65013;BME280;51715;39.432;-77.518;2023-05-29T08:08:28;99394.30;;;20.56;40.40
65013;BME280;51715;39.432;-77.518;2023-05-29T08:10:57;99393.28;;;20.50;40.50
65013;BME280;51715;39.432;-77.518;2023-05-29T08:13:25;99391.05;;;20.30;40.83
65013;BME280;51715;39.432;-77.518;2023-05-29T08:15:53;99388.71;;;20.64;40.67
65013;BME280;51715;39.432;-77.518;2023-05-29T08:18:24;99393.31;;;20.21;40.67
65013;BME280;51715;39.432;-77.518;2023-05-29T08:20:53;99395.15;;;20.54;40.72
65013;BME280;51715;39.432;-77.518;2023-05-29T08:23:21;99393.96;;;20.58;40.67
65013;BME280;51715;39.432;-77.518;2023-05-29T08:25:48;99397.09;;;20.42;40.42
65013;BME280;51715;39.432;-77.518;2023-05-29T08:28:16;99396.50;;;20.45;40.33
65013;BME280;51715;39.432;-77.518;2023-05-29T08:30:45;99394.62;;;20.34;40.58
65013;BME280;51715;39.432;-77.518;2023-05-29T08:33:13;99396.25;;;20.37;40.22
65013;BME280;51715;39.432;-77.518;2023-05-29T08:35:41;99397.78;;;20.27;40.39
65013;BME280;51715;39.432;-77.518;2023-05-29T08:38:09;99399.20;;;20.32;39.83
65013;BME280;51715;39.432;-77.518;2023-05-29T08:40:38;99404.56;;;20.51;39.98
65013;BME280;51715;39.432;-77.518;2023-05-29T08:43:10;99407.94;;;20.34;39.17
65013;BME280;51715;39.432;-77.518;2023-05-29T08:45:40;99408.61;;;20.49;38.82
65013;BME280;51715;39.432;-77.518;2023-05-29T08:48:11;99406.54;;;20.43;38.83
65013;BME280;51715;39.432;-77.518;2023-05-29T08:50:44;99402.63;;;20.84;38.52
65013;BME280;51715;39.432;-77.518;2023-05-29T08:53:14;99402.99;;;21.04;38.30
65013;BME280;51715;39.432;-77.518;2023-05-29T08:55:42;99405.08;;;20.84;38.33
65013;BME280;51715;39.432;-77.518;2023-05-29T08:58:12;99407.83;;;21.02;38.83
65013;BME280;51715;39.432;-77.518;2023-05-29T09:00:41;99412.24;;;20.72;39.08
65013;BME280;51715;39.432;-77.518;2023-05-29T09:03:09;99411.94;;;20.51;38.67
65013;BME280;51715;39.432;-77.518;2023-05-29T09:05:39;99408.38;;;20.96;38.72
65013;BME280;51715;39.432;-77.518;2023-05-29T09:08:10;99404.08;;;20.55;38.46
65013;BME280;51715;39.432;-77.518;2023-05-29T09:10:39;99404.04;;;20.83;38.64
65013;BME280;51715;39.432;-77.518;2023-05-29T09:13:07;99407.69;;;20.99;38.54
65013;BME280;51715;39.432;-77.518;2023-05-29T09:15:35;99409.45;;;20.93;38.65
65013;BME280;51715;39.432;-77.518;2023-05-29T09:18:04;99405.82;;;20.99;38.69
65013;BME280;51715;39.432;-77.518;2023-05-29T09:20:32;99400.42;;;21.10;38.41
65013;BME280;51715;39.432;-77.518;2023-05-29T09:23:02;99397.43;;;20.96;38.05
65013;BME280;51715;39.432;-77.518;2023-05-29T09:25:33;99398.03;;;20.94;38.28
65013;BME280;51715;39.432;-77.518;2023-05-29T09:28:03;99393.21;;;20.66;37.98
65013;BME280;51715;39.432;-77.518;2023-05-29T09:30:33;99399.60;;;20.93;38.63
65013;BME280;51715;39.432;-77.518;2023-05-29T09:33:03;99402.00;;;20.96;38.05
65013;BME280;51715;39.432;-77.518;2023-05-29T09:35:35;99403.96;;;20.87;38.18
65013;BME280;51715;39.432;-77.518;2023-05-29T09:38:05;99406.77;;;20.73;38.23
65013;BME280;51715;39.432;-77.518;2023-05-29T09:40:35;99408.85;;;20.77;38.00
65013;BME280;51715;39.432;-77.518;2023-05-29T09:43:05;99408.25;;;21.06;37.99
65013;BME280;51715;39.432;-77.518;2023-05-29T09:45:35;99408.37;;;20.83;38.14
65013;BME280;51715;39.432;-77.518;2023-05-29T09:48:03;99408.86;;;21.04;38.13
65013;BME280;51715;39.432;-77.518;2023-05-29T09:50:33;99408.41;;;21.09;38.23
65013;BME280;51715;39.432;-77.518;2023-05-29T09:53:01;99413.60;;;21.02;38.27
65013;BME280;51715;39.432;-77.518;2023-05-29T09:55:31;99414.78;;;20.84;38.24
65013;BME280;51715;39.432;-77.518;2023-05-29T09:57:59;99416.62;;;21.10;38.05
65013;BME280;51715;39.432;-77.518;2023-05-29T10:00:29;99422.83;;;20.85;37.86
65013;BME280;51715;39.432;-77.518;2023-05-29T10:02:57;99423.28;;;21.07;38.61
65013;BME280;51715;39.432;-77.518;2023-05-29T10:05:25;99428.04;;;21.08;38.23
65013;BME280;51715;39.432;-77.518;2023-05-29T10:07:55;99431.86;;;20.85;38.14
65013;BME280;51715;39.432;-77.518;2023-05-29T10:10:24;99436.39;;;21.09;38.34
65013;BME280;51715;39.432;-77.518;2023-05-29T10:12:54;99437.06;;;21.20;38.26
65013;BME280;51715;39.432;-77.518;2023-05-29T10:15:24;99440.26;;;21.17;38.28
65013;BME280;51715;39.432;-77.518;2023-05-29T10:18:03;99438.70;;;21.05;38.05
65013;BME280;51715;39.432;-77.518;2023-05-29T10:20:33;99440.86;;;21.02;38.14
65013;BME280;51715;39.432;-77.518;2023-05-29T10:23:07;99443.70;;;21.11;38.69
65013;BME280;51715;39.432;-77.518;2023-05-29T10:25:36;99444.84;;;20.94;38.97
65013;BME280;51715;39.432;-77.518;2023-05-29T10:28:05;99446.52;;;20.86;38.85
65013;BME280;51715;39.432;-77.518;2023-05-29T10:30:37;99451.20;;;21.17;38.80
65013;BME280;51715;39.432;-77.518;2023-05-29T10:33:22;99451.36;;;21.28;38.99
65013;BME280;51715;39.432;-77.518;2023-05-29T10:36:03;99452.43;;;21.42;38.58
65013;BME280;51715;39.432;-77.518;2023-05-29T10:38:35;99454.03;;;21.24;38.70
65013;BME280;51715;39.432;-77.518;2023-05-29T10:41:52;99456.55;;;21.35;38.44
65013;BME280;51715;39.432;-77.518;2023-05-29T10:44:52;99460.07;;;21.51;38.91
65013;BME280;51715;39.432;-77.518;2023-05-29T10:47:24;99462.42;;;21.71;37.90
65013;BME280;51715;39.432;-77.518;2023-05-29T10:49:52;99466.17;;;21.66;38.11
65013;BME280;51715;39.432;-77.518;2023-05-29T10:52:26;99468.79;;;22.04;38.05
65013;BME280;51715;39.432;-77.518;2023-05-29T10:54:58;99467.27;;;22.18;37.29
65013;BME280;51715;39.432;-77.518;2023-05-29T10:57:26;99468.66;;;22.11;37.55
65013;BME280;51715;39.432;-77.518;2023-05-29T11:00:02;99464.87;;;22.26;37.61
65013;BME280;51715;39.432;-77.518;2023-05-29T11:02:31;99465.14;;;22.19;37.42
65013;BME280;51715;39.432;-77.518;2023-05-29T11:05:20;99464.68;;;22.33;37.39
65013;BME280;51715;39.432;-77.518;2023-05-29T11:07:55;99468.91;;;22.48;36.86
65013;BME280;51715;39.432;-77.518;2023-05-29T11:12:34;99466.66;;;22.62;35.83
65013;BME280;51715;39.432;-77.518;2023-05-29T11:15:05;99466.49;;;22.91;36.66
65013;BME280;51715;39.432;-77.518;2023-05-29T11:17:43;99467.94;;;23.03;36.71
65013;BME280;51715;39.432;-77.518;2023-05-29T11:20:35;99469.32;;;22.87;37.64
65013;BME280;51715;39.432;-77.518;2023-05-29T11:23:05;99472.01;;;23.28;37.24
65013;BME280;51715;39.432;-77.518;2023-05-29T11:25:34;99466.91;;;23.16;35.38
65013;BME280;51715;39.432;-77.518;2023-05-29T11:28:04;99465.07;;;23.53;36.11
65013;BME280;51715;39.432;-77.518;2023-05-29T11:30:41;99464.08;;;23.27;35.06
65013;BME280;51715;39.432;-77.518;2023-05-29T11:33:15;99462.23;;;23.61;33.87
65013;BME280;51715;39.432;-77.518;2023-05-29T11:35:46;99469.79;;;23.57;33.49
65013;BME280;51715;39.432;-77.518;2023-05-29T11:38:17;99469.93;;;23.41;32.40
65013;BME280;51715;39.432;-77.518;2023-05-29T11:40:45;99467.41;;;23.46;31.03
65013;BME280;51715;39.432;-77.518;2023-05-29T11:43:13;99464.90;;;23.35;31.38
65013;BME280;51715;39.432;-77.518;2023-05-29T11:45:42;99459.79;;;23.54;32.71
65013;BME280;51715;39.432;-77.518;2023-05-29T11:48:11;99454.15;;;23.90;31.80
65013;BME280;51715;39.432;-77.518;2023-05-29T11:50:39;99450.70;;;24.18;31.97
65013;BME280;51715;39.432;-77.518;2023-05-29T11:53:07;99451.16;;;24.24;31.54
65013;BME280;51715;39.432;-77.518;2023-05-29T11:55:36;99447.58;;;24.56;32.40
65013;BME280;51715;39.432;-77.518;2023-05-29T11:58:04;99443.80;;;24.47;33.02
65013;BME280;51715;39.432;-77.518;2023-05-29T12:00:34;99440.76;;;24.37;31.31
65013;BME280;51715;39.432;-77.518;2023-05-29T12:03:04;99439.04;;;24.55;32.72
65013;BME280;51715;39.432;-77.518;2023-05-29T12:05:44;99440.79;;;24.71;32.10
65013;BME280;51715;39.432;-77.518;2023-05-29T12:08:12;99443.83;;;24.85;30.99
65013;BME280;51715;39.432;-77.518;2023-05-29T12:10:47;99442.16;;;25.03;32.15
65013;BME280;51715;39.432;-77.518;2023-05-29T12:13:15;99445.53;;;25.13;31.34
65013;BME280;51715;39.432;-77.518;2023-05-29T12:15:43;99447.14;;;25.52;32.40
65013;BME280;51715;39.432;-77.518;2023-05-29T12:18:12;99447.83;;;25.14;31.86
65013;BME280;51715;39.432;-77.518;2023-05-29T12:20:40;99450.21;;;25.42;32.48
65013;BME280;51715;39.432;-77.518;2023-05-29T12:23:08;99451.02;;;25.08;31.74
65013;BME280;51715;39.432;-77.518;2023-05-29T12:25:38;99452.22;;;24.79;30.69
65013;BME280;51715;39.432;-77.518;2023-05-29T12:28:06;99452.57;;;24.82;32.54
65013;BME280;51715;39.432;-77.518;2023-05-29T12:30:38;99450.13;;;25.14;32.42
65013;BME280;51715;39.432;-77.518;2023-05-29T12:33:05;99450.50;;;25.23;31.98
65013;BME280;51715;39.432;-77.518;2023-05-29T12:35:33;99446.92;;;25.35;31.61
65013;BME280;51715;39.432;-77.518;2023-05-29T12:38:03;99445.28;;;25.45;31.09
65013;BME280;51715;39.432;-77.518;2023-05-29T12:40:32;99449.05;;;25.37;32.52
65013;BME280;51715;39.432;-77.518;2023-05-29T12:43:02;99449.99;;;25.55;31.34
65013;BME280;51715;39.432;-77.518;2023-05-29T12:45:32;99450.74;;;25.71;33.28
65013;BME280;51715;39.432;-77.518;2023-05-29T12:48:03;99455.01;;;25.39;33.33
65013;BME280;51715;39.432;-77.518;2023-05-29T12:50:33;99458.89;;;25.96;32.69
65013;BME280;51715;39.432;-77.518;2023-05-29T12:53:02;99461.59;;;25.71;32.04
65013;BME280;51715;39.432;-77.518;2023-05-29T12:55:33;99463.27;;;25.76;32.92